sensor_id;sensor_type;location;lat;lon;timestamp;temperature;humidity
47616;DHT22;69146;52.266;7.000;2023-11-21T00:01:13;7.90;99.90
47616;DHT22;69146;52.266;7.000;2023-11-21T00:03:58;7.90;99.90
47616;DHT22;69146;52.266;7.000;2023-11-21T00:06:42;7.90;99.90
47616;DHT22;69146;52.266;7.000;2023-11-21T00:09:27;7.90;99.90
47616;DHT22;69146;52.266;7.000;2023-11-21T00:12:11;7.90;99.90
47616;DHT22;69146;52.266;7.000;2023-11-21T00:14:56;7.90;99.90
47616;DHT22;69146;52.266;7.000;2023-11-21T00:17:41;7.90;99.90
47616;DHT22;69146;52.266;7.000;2023-11-21T00:20:26;7.90;99.90
47616;DHT22;69146;52.266;7.000;2023-11-21T00:23:11;8.00;99.90
47616;DHT22;69146;52.266;7.000;2023-11-21T00:25:56;7.90;99.90
47616;DHT22;69146;52.266;7.000;2023-11-21T00:28:41;7.90;99.90
47616;DHT22;69146;52.266;7.000;2023-11-21T00:31:26;7.90;99.90
47616;DHT22;69146;52.266;7.000;2023-11-21T00:34:12;7.90;99.90
47616;DHT22;69146;52.266;7.000;2023-11-21T00:36:56;8.00;99.90
47616;DHT22;69146;52.266;7.000;2023-11-21T00:39:41;8.00;99.90
47616;DHT22;69146;52.266;7.000;2023-11-21T00:42:25;7.90;99.90
47616;DHT22;69146;52.266;7.000;2023-11-21T00:45:10;7.90;99.90
47616;DHT22;69146;52.266;7.000;2023-11-21T00:47:54;8.00;99.90
47616;DHT22;69146;52.266;7.000;2023-11-21T00:50:40;8.00;99.90
47616;DHT22;69146;52.266;7.000;2023-11-21T00:53:24;8.10;99.90
47616;DHT22;69146;52.266;7.000;2023-11-21T00:56:10;8.10;99.90
47616;DHT22;69146;52.266;7.000;2023-11-21T00:58:54;8.10;99.90
47616;DHT22;69146;52.266;7.000;2023-11-21T01:01:38;8.10;99.90
47616;DHT22;69146;52.266;7.000;2023-11-21T01:04:24;8.00;99.90
47616;DHT22;69146;52.266;7.000;2023-11-21T01:07:10;8.00;99.90
47616;DHT22;69146;52.266;7.000;2023-11-21T01:09:54;8.10;99.90
47616;DHT22;69146;52.266;7.000;2023-11-21T01:12:40;8.10;99.90
47616;DHT22;69146;52.266;7.000;2023-11-21T01:15:26;8.10;99.90
47616;DHT22;69146;52.266;7.000;2023-11-21T01:18:10;8.10;99.90
47616;DHT22;69146;52.266;7.000;2023-11-21T01:20:54;8.10;99.90
47616;DHT22;69146;52.266;7.000;2023-11-21T01:23:40;8.10;99.90
47616;DHT22;69146;52.266;7.000;2023-11-21T01:26:25;8.10;99.90
47616;DHT22;69146;52.266;7.000;2023-11-21T01:29:09;8.10;99.90
47616;DHT22;69146;52.266;7.000;2023-11-21T01:31:55;8.20;99.90
47616;DHT22;69146;52.266;7.000;2023-11-21T01:34:41;8.20;99.90
47616;DHT22;69146;52.266;7.000;2023-11-21T01:37:26;8.20;99.90
47616;DHT22;69146;52.266;7.000;2023-11-21T01:40:13;8.20;99.90
47616;DHT22;69146;52.266;7.000;2023-11-21T01:42:58;8.20;99.90
47616;DHT22;69146;52.266;7.000;2023-11-21T01:45:43;8.20;99.90
47616;DHT22;69146;52.266;7.000;2023-11-21T01:48:29;8.20;99.90
47616;DHT22;69146;52.266;7.000;2023-11-21T01:51:14;8.20;99.90
47616;DHT22;69146;52.266;7.000;2023-11-21T01:53:59;8.20;99.90
47616;DHT22;69146;52.266;7.000;2023-11-21T01:56:45;8.20;99.90
47616;DHT22;69146;52.266;7.000;2023-11-21T01:59:32;8.20;99.90
47616;DHT22;69146;52.266;7.000;2023-11-21T02:02:18;8.20;99.90
47616;DHT22;69146;52.266;7.000;2023-11-21T02:05:02;8.30;99.90
47616;DHT22;69146;52.266;7.000;2023-11-21T02:07:46;8.20;99.90
47616;DHT22;69146;52.266;7.000;2023-11-21T02:10:32;8.30;99.90
47616;DHT22;69146;52.266;7.000;2023-11-21T02:13:18;8.30;99.90
47616;DHT22;69146;52.266;7.000;2023-11-21T02:16:03;8.30;99.90
47616;DHT22;69146;52.266;7.000;2023-11-21T02:18:49;8.20;99.90
47616;DHT22;69146;52.266;7.000;2023-11-21T02:21:35;8.30;99.90
47616;DHT22;69146;52.266;7.000;2023-11-21T02:24:23;8.30;99.90
47616;DHT22;69146;52.266;7.000;2023-11-21T02:27:07;8.30;99.90
47616;DHT22;69146;52.266;7.000;2023-11-21T02:29:52;8.30;99.90
47616;DHT22;69146;52.266;7.000;2023-11-21T02:32:37;8.30;99.90
47616;DHT22;69146;52.266;7.000;2023-11-21T02:35:24;8.30;99.90
47616;DHT22;69146;52.266;7.000;2023-11-21T02:38:10;8.30;99.90
47616;DHT22;69146;52.266;7.000;2023-11-21T02:40:57;8.30;99.90
47616;DHT22;69146;52.266;7.000;2023-11-21T02:43:42;8.30;99.90
47616;DHT22;69146;52.266;7.000;2023-11-21T02:46:26;8.30;99.90
47616;DHT22;69146;52.266;7.000;2023-11-21T02:49:11;8.30;99.90
47616;DHT22;69146;52.266;7.000;2023-11-21T02:51:56;8.20;99.90
47616;DHT22;69146;52.266;7.000;2023-11-21T02:54:41;8.30;99.90
47616;DHT22;69146;52.266;7.000;2023-11-21T02:57:26;8.30;99.90
47616;DHT22;69146;52.266;7.000;2023-11-21T03:00:11;8.30;99.90
47616;DHT22;69146;52.266;7.000;2023-11-21T03:02:57;8.30;99.90
47616;DHT22;69146;52.266;7.000;2023-11-21T03:05:41;8.30;99.90
47616;DHT22;69146;52.266;7.000;2023-11-21T03:08:26;8.30;99.90
47616;DHT22;69146;52.266;7.000;2023-11-21T03:11:10;8.30;99.90
47616;DHT22;69146;52.266;7.000;2023-11-21T03:13:56;8.30;99.90
47616;DHT22;69146;52.266;7.000;2023-11-21T03:16:41;8.30;99.90
47616;DHT22;69146;52.266;7.000;2023-11-21T03:19:26;8.30;99.90
47616;DHT22;69146;52.266;7.000;2023-11-21T03:22:10;8.30;99.90
47616;DHT22;69146;52.266;7.000;2023-11-21T03:24:57;8.40;99.90
47616;DHT22;69146;52.266;7.000;2023-11-21T03:27:42;8.30;99.90
47616;DHT22;69146;52.266;7.000;2023-11-21T03:30:29;8.40;99.90
47616;DHT22;69146;52.266;7.000;2023-11-21T03:33:14;8.30;99.90
47616;DHT22;69146;52.266;7.000;2023-11-21T03:35:59;8.30;99.90
47616;DHT22;69146;52.266;7.000;2023-11-21T03:38:43;8.40;99.90
47616;DHT22;69146;52.266;7.000;2023-11-21T03:41:28;8.30;99.90
47616;DHT22;69146;52.266;7.000;2023-11-21T03:44:12;8.30;99.90
47616;DHT22;69146;52.266;7.000;2023-11-21T03:46:58;8.30;99.90
47616;DHT22;69146;52.266;7.000;2023-11-21T03:52:30;8.30;99.90
47616;DHT22;69146;52.266;7.000;2023-11-21T03:55:14;8.30;99.90
47616;DHT22;69146;52.266;7.000;2023-11-21T03:57:59;8.30;99.90
47616;DHT22;69146;52.266;7.000;2023-11-21T04:00:43;8.20;99.90
47616;DHT22;69146;52.266;7.000;2023-11-21T04:03:29;8.20;99.90
47616;DHT22;69146;52.266;7.000;2023-11-21T04:06:14;8.20;99.90
47616;DHT22;69146;52.266;7.000;2023-11-21T04:08:58;8.20;99.90
47616;DHT22;69146;52.266;7.000;2023-11-21T04:11:43;8.20;99.90
47616;DHT22;69146;52.266;7.000;2023-11-21T04:14:30;8.20;99.90
47616;DHT22;69146;52.266;7.000;2023-11-21T04:17:17;8.20;99.90
47616;DHT22;69146;52.266;7.000;2023-11-21T04:20:03;8.30;99.90
47616;DHT22;69146;52.266;7.000;2023-11-21T04:22:52;8.20;99.90
47616;DHT22;69146;52.266;7.000;2023-11-21T04:25:37;8.20;99.90
47616;DHT22;69146;52.266;7.000;2023-11-21T04:28:21;8.20;99.90
47616;DHT22;69146;52.266;7.000;2023-11-21T04:31:05;8.30;99.90
47616;DHT22;69146;52.266;7.000;2023-11-21T04:33:51;8.30;99.90
47616;DHT22;69146;52.266;7.000;2023-11-21T04:36:37;8.30;99.90
47616;DHT22;69146;52.266;7.000;2023-11-21T04:39:22;8.30;99.90
47616;DHT22;69146;52.266;7.000;2023-11-21T04:42:07;8.30;99.90
47616;DHT22;69146;52.266;7.000;2023-11-21T04:44:51;8.30;99.90
47616;DHT22;69146;52.266;7.000;2023-11-21T04:47:36;8.40;99.90
47616;DHT22;69146;52.266;7.000;2023-11-21T04:50:21;8.30;99.90
47616;DHT22;69146;52.266;7.000;2023-11-21T04:53:06;8.40;99.90
47616;DHT22;69146;52.266;7.000;2023-11-21T04:55:51;8.40;99.90
47616;DHT22;69146;52.266;7.000;2023-11-21T04:58:35;8.40;99.90
47616;DHT22;69146;52.266;7.000;2023-11-21T05:01:20;8.40;99.90
47616;DHT22;69146;52.266;7.000;2023-11-21T05:04:05;8.40;99.90
47616;DHT22;69146;52.266;7.000;2023-11-21T05:06:50;8.40;99.90
47616;DHT22;69146;52.266;7.000;2023-11-21T05:09:35;8.40;99.90
47616;DHT22;69146;52.266;7.000;2023-11-21T05:12:21;8.40;99.90
47616;DHT22;69146;52.266;7.000;2023-11-21T05:15:07;8.40;99.90
47616;DHT22;69146;52.266;7.000;2023-11-21T05:17:54;8.40;99.90
47616;DHT22;69146;52.266;7.000;2023-11-21T05:20:39;8.40;99.90
47616;DHT22;69146;52.266;7.000;2023-11-21T05:23:25;8.40;99.90
47616;DHT22;69146;52.266;7.000;2023-11-21T05:26:11;8.40;99.90
47616;DHT22;69146;52.266;7.000;2023-11-21T05:28:55;8.50;99.90
47616;DHT22;69146;52.266;7.000;2023-11-21T05:31:39;8.40;99.90
47616;DHT22;69146;52.266;7.000;2023-11-21T05:34:24;8.40;99.90
47616;DHT22;69146;52.266;7.000;2023-11-21T05:37:08;8.40;99.90
47616;DHT22;69146;52.266;7.000;2023-11-21T05:39:53;8.40;99.90
47616;DHT22;69146;52.266;7.000;2023-11-21T05:42:39;8.40;99.90
47616;DHT22;69146;52.266;7.000;2023-11-21T05:45:24;8.40;99.90
47616;DHT22;69146;52.266;7.000;2023-11-21T05:48:09;8.40;99.90
47616;DHT22;69146;52.266;7.000;2023-11-21T05:50:54;8.40;99.90
47616;DHT22;69146;52.266;7.000;2023-11-21T05:53:39;8.40;99.90
47616;DHT22;69146;52.266;7.000;2023-11-21T05:56:23;8.40;99.90
47616;DHT22;69146;52.266;7.000;2023-11-21T05:59:09;8.40;99.90
47616;DHT22;69146;52.266;7.000;2023-11-21T06:01:54;8.40;99.90
47616;DHT22;69146;52.266;7.000;2023-11-21T06:04:38;8.40;99.90
47616;DHT22;69146;52.266;7.000;2023-11-21T06:07:23;8.40;99.90
47616;DHT22;69146;52.266;7.000;2023-11-21T06:10:08;8.40;99.90
47616;DHT22;69146;52.266;7.000;2023-11-21T06:12:54;8.30;99.90
47616;DHT22;69146;52.266;7.000;2023-11-21T06:15:40;8.40;99.90
47616;DHT22;69146;52.266;7.000;2023-11-21T06:18:24;8.30;99.90
47616;DHT22;69146;52.266;7.000;2023-11-21T06:21:09;8.30;99.90
47616;DHT22;69146;52.266;7.000;2023-11-21T06:23:53;8.30;99.90
47616;DHT22;69146;52.266;7.000;2023-11-21T06:26:38;8.30;99.90
47616;DHT22;69146;52.266;7.000;2023-11-21T06:29:23;8.20;99.90
47616;DHT22;69146;52.266;7.000;2023-11-21T06:32:09;8.30;99.90
47616;DHT22;69146;52.266;7.000;2023-11-21T06:34:53;8.20;99.90
47616;DHT22;69146;52.266;7.000;2023-11-21T06:37:38;8.30;99.90
47616;DHT22;69146;52.266;7.000;2023-11-21T06:40:23;8.30;99.90
47616;DHT22;69146;52.266;7.000;2023-11-21T06:43:08;8.30;99.90
47616;DHT22;69146;52.266;7.000;2023-11-21T06:45:53;8.30;99.90
47616;DHT22;69146;52.266;7.000;2023-11-21T06:48:40;8.30;99.90
47616;DHT22;69146;52.266;7.000;2023-11-21T06:51:25;8.30;99.90
47616;DHT22;69146;52.266;7.000;2023-11-21T06:54:09;8.30;99.90
47616;DHT22;69146;52.266;7.000;2023-11-21T06:56:54;8.30;99.90
47616;DHT22;69146;52.266;7.000;2023-11-21T06:59:38;8.30;99.90
47616;DHT22;69146;52.266;7.000;2023-11-21T07:02:23;8.30;99.90
47616;DHT22;69146;52.266;7.000;2023-11-21T07:05:09;8.30;99.90
47616;DHT22;69146;52.266;7.000;2023-11-21T07:07:53;8.30;99.90
47616;DHT22;69146;52.266;7.000;2023-11-21T07:10:38;8.40;99.90
47616;DHT22;69146;52.266;7.000;2023-11-21T07:13:22;8.40;99.90
47616;DHT22;69146;52.266;7.000;2023-11-21T07:16:06;8.40;99.90
47616;DHT22;69146;52.266;7.000;2023-11-21T07:18:51;8.40;99.90
47616;DHT22;69146;52.266;7.000;2023-11-21T07:21:37;8.40;99.90
47616;DHT22;69146;52.266;7.000;2023-11-21T07:24:22;8.40;99.90
47616;DHT22;69146;52.266;7.000;2023-11-21T07:27:07;8.40;99.90
47616;DHT22;69146;52.266;7.000;2023-11-21T07:29:51;8.40;99.90
47616;DHT22;69146;52.266;7.000;2023-11-21T07:32:36;8.40;99.90
47616;DHT22;69146;52.266;7.000;2023-11-21T07:35:21;8.40;99.90
47616;DHT22;69146;52.266;7.000;2023-11-21T07:38:07;8.40;99.90
47616;DHT22;69146;52.266;7.000;2023-11-21T07:40:52;8.40;99.90
47616;DHT22;69146;52.266;7.000;2023-11-21T07:43:37;8.40;99.90
47616;DHT22;69146;52.266;7.000;2023-11-21T07:46:22;8.40;99.90
47616;DHT22;69146;52.266;7.000;2023-11-21T07:49:06;8.40;99.90
47616;DHT22;69146;52.266;7.000;2023-11-21T07:51:50;8.40;99.90
47616;DHT22;69146;52.266;7.000;2023-11-21T07:54:36;8.50;99.90
47616;DHT22;69146;52.266;7.000;2023-11-21T07:57:21;8.40;99.90
47616;DHT22;69146;52.266;7.000;2023-11-21T08:00:07;8.50;99.90
47616;DHT22;69146;52.266;7.000;2023-11-21T08:02:53;8.50;99.90
47616;DHT22;69146;52.266;7.000;2023-11-21T08:05:38;8.50;99.90
47616;DHT22;69146;52.266;7.000;2023-11-21T08:08:22;8.50;99.90
47616;DHT22;69146;52.266;7.000;2023-11-21T08:11:09;8.50;99.90
47616;DHT22;69146;52.266;7.000;2023-11-21T08:13:54;8.50;99.90
47616;DHT22;69146;52.266;7.000;2023-11-21T08:16:39;8.50;99.90
47616;DHT22;69146;52.266;7.000;2023-11-21T08:19:23;8.50;99.90
47616;DHT22;69146;52.266;7.000;2023-11-21T08:22:09;8.60;99.90
47616;DHT22;69146;52.266;7.000;2023-11-21T08:24:53;8.60;99.90
47616;DHT22;69146;52.266;7.000;2023-11-21T08:27:41;8.60;99.90
47616;DHT22;69146;52.266;7.000;2023-11-21T08:30:25;8.60;99.90
47616;DHT22;69146;52.266;7.000;2023-11-21T08:33:13;8.60;99.90
47616;DHT22;69146;52.266;7.000;2023-11-21T08:35:58;8.60;99.90
47616;DHT22;69146;52.266;7.000;2023-11-21T08:38:42;8.60;99.90
47616;DHT22;69146;52.266;7.000;2023-11-21T08:41:26;8.60;99.90
47616;DHT22;69146;52.266;7.000;2023-11-21T08:44:13;8.60;99.90
47616;DHT22;69146;52.266;7.000;2023-11-21T08:46:57;8.50;99.90
47616;DHT22;69146;52.266;7.000;2023-11-21T08:49:42;8.50;99.90
47616;DHT22;69146;52.266;7.000;2023-11-21T08:52:26;8.60;99.90
47616;DHT22;69146;52.266;7.000;2023-11-21T08:55:11;8.60;99.90
47616;DHT22;69146;52.266;7.000;2023-11-21T08:57:56;8.60;99.90
47616;DHT22;69146;52.266;7.000;2023-11-21T09:00:44;8.60;99.90
47616;DHT22;69146;52.266;7.000;2023-11-21T09:03:30;8.60;99.90
47616;DHT22;69146;52.266;7.000;2023-11-21T09:06:16;8.60;99.90
47616;DHT22;69146;52.266;7.000;2023-11-21T09:09:00;8.60;99.90
47616;DHT22;69146;52.266;7.000;2023-11-21T09:11:45;8.70;99.90
47616;DHT22;69146;52.266;7.000;2023-11-21T09:14:30;8.60;99.90
47616;DHT22;69146;52.266;7.000;2023-11-21T09:17:16;8.70;99.90
47616;DHT22;69146;52.266;7.000;2023-11-21T09:20:00;8.70;99.90
47616;DHT22;69146;52.266;7.000;2023-11-21T09:22:45;8.70;99.90
47616;DHT22;69146;52.266;7.000;2023-11-21T09:25:30;8.70;99.90
47616;DHT22;69146;52.266;7.000;2023-11-21T09:28:14;8.80;99.90
47616;DHT22;69146;52.266;7.000;2023-11-21T09:30:59;8.80;99.90
47616;DHT22;69146;52.266;7.000;2023-11-21T09:33:44;8.90;99.90
47616;DHT22;69146;52.266;7.000;2023-11-21T09:36:29;8.90;99.90
47616;DHT22;69146;52.266;7.000;2023-11-21T09:39:14;8.90;99.90
47616;DHT22;69146;52.266;7.000;2023-11-21T09:41:59;8.90;99.90
47616;DHT22;69146;52.266;7.000;2023-11-21T09:44:51;9.00;99.90
47616;DHT22;69146;52.266;7.000;2023-11-21T09:47:39;9.00;99.90
47616;DHT22;69146;52.266;7.000;2023-11-21T09:50:25;9.00;99.90
47616;DHT22;69146;52.266;7.000;2023-11-21T09:53:13;9.00;99.90
47616;DHT22;69146;52.266;7.000;2023-11-21T09:56:01;9.00;99.90
47616;DHT22;69146;52.266;7.000;2023-11-21T09:58:48;9.00;99.90
47616;DHT22;69146;52.266;7.000;2023-11-21T10:01:34;9.00;99.90
47616;DHT22;69146;52.266;7.000;2023-11-21T10:04:20;9.00;99.90
47616;DHT22;69146;52.266;7.000;2023-11-21T10:07:06;9.00;99.90
47616;DHT22;69146;52.266;7.000;2023-11-21T10:09:53;9.00;99.90
47616;DHT22;69146;52.266;7.000;2023-11-21T10:12:39;9.00;99.90
47616;DHT22;69146;52.266;7.000;2023-11-21T10:15:24;9.00;99.90
47616;DHT22;69146;52.266;7.000;2023-11-21T10:18:11;9.10;99.90
47616;DHT22;69146;52.266;7.000;2023-11-21T10:20:57;9.10;99.90
47616;DHT22;69146;52.266;7.000;2023-11-21T10:23:43;9.20;99.90
47616;DHT22;69146;52.266;7.000;2023-11-21T10:26:28;9.20;99.90
47616;DHT22;69146;52.266;7.000;2023-11-21T10:29:12;9.30;99.90
47616;DHT22;69146;52.266;7.000;2023-11-21T10:32:01;9.30;99.90
47616;DHT22;69146;52.266;7.000;2023-11-21T10:34:55;9.40;99.90
47616;DHT22;69146;52.266;7.000;2023-11-21T10:37:39;9.40;99.90
47616;DHT22;69146;52.266;7.000;2023-11-21T10:40:27;9.40;99.90
47616;DHT22;69146;52.266;7.000;2023-11-21T10:43:12;9.40;99.90
47616;DHT22;69146;52.266;7.000;2023-11-21T10:46:03;9.40;99.90
47616;DHT22;69146;52.266;7.000;2023-11-21T10:48:52;9.40;99.90
47616;DHT22;69146;52.266;7.000;2023-11-21T10:51:36;9.30;99.90
47616;DHT22;69146;52.266;7.000;2023-11-21T10:54:22;9.40;99.90
47616;DHT22;69146;52.266;7.000;2023-11-21T10:57:08;9.40;99.90
47616;DHT22;69146;52.266;7.000;2023-11-21T10:59:53;9.40;99.90
47616;DHT22;69146;52.266;7.000;2023-11-21T11:02:38;9.50;99.90
47616;DHT22;69146;52.266;7.000;2023-11-21T11:05:24;9.50;99.90
47616;DHT22;69146;52.266;7.000;2023-11-21T11:08:11;9.50;99.90
47616;DHT22;69146;52.266;7.000;2023-11-21T11:10:56;9.50;99.90
47616;DHT22;69146;52.266;7.000;2023-11-21T11:13:44;9.50;99.90
47616;DHT22;69146;52.266;7.000;2023-11-21T11:16:30;9.50;99.90
47616;DHT22;69146;52.266;7.000;2023-11-21T11:19:15;9.50;99.90
47616;DHT22;69146;52.266;7.000;2023-11-21T11:22:02;9.50;99.90
47616;DHT22;69146;52.266;7.000;2023-11-21T11:27:52;9.40;99.90
47616;DHT22;69146;52.266;7.000;2023-11-21T11:30:44;9.40;99.90
47616;DHT22;69146;52.266;7.000;2023-11-21T11:33:34;9.40;99.90
47616;DHT22;69146;52.266;7.000;2023-11-21T11:36:22;9.30;99.90
47616;DHT22;69146;52.266;7.000;2023-11-21T11:42:11;9.30;99.90
47616;DHT22;69146;52.266;7.000;2023-11-21T11:44:56;9.20;99.90
47616;DHT22;69146;52.266;7.000;2023-11-21T11:47:43;9.20;99.90
47616;DHT22;69146;52.266;7.000;2023-11-21T11:50:28;9.10;99.90
47616;DHT22;69146;52.266;7.000;2023-11-21T11:53:13;9.10;99.90
47616;DHT22;69146;52.266;7.000;2023-11-21T11:56:00;9.10;99.90
47616;DHT22;69146;52.266;7.000;2023-11-21T11:59:03;9.00;99.90
47616;DHT22;69146;52.266;7.000;2023-11-21T12:01:48;8.90;99.90
47616;DHT22;69146;52.266;7.000;2023-11-21T12:04:35;8.90;99.90
47616;DHT22;69146;52.266;7.000;2023-11-21T12:07:25;8.80;99.90
47616;DHT22;69146;52.266;7.000;2023-11-21T12:10:23;8.80;99.90
47616;DHT22;69146;52.266;7.000;2023-11-21T12:13:11;8.80;99.90
47616;DHT22;69146;52.266;7.000;2023-11-21T12:15:57;8.80;99.90
47616;DHT22;69146;52.266;7.000;2023-11-21T12:18:42;8.80;99.90
47616;DHT22;69146;52.266;7.000;2023-11-21T12:21:28;8.80;99.90
47616;DHT22;69146;52.266;7.000;2023-11-21T12:24:14;8.70;99.90
47616;DHT22;69146;52.266;7.000;2023-11-21T12:27:00;8.70;99.90
47616;DHT22;69146;52.266;7.000;2023-11-21T12:29:44;8.80;99.90
47616;DHT22;69146;52.266;7.000;2023-11-21T12:32:29;8.70;99.90
47616;DHT22;69146;52.266;7.000;2023-11-21T12:35:13;8.70;99.90
47616;DHT22;69146;52.266;7.000;2023-11-21T12:37:59;8.70;99.90
47616;DHT22;69146;52.266;7.000;2023-11-21T12:40:44;8.80;99.90
47616;DHT22;69146;52.266;7.000;2023-11-21T12:43:29;8.80;99.90
47616;DHT22;69146;52.266;7.000;2023-11-21T12:46:14;8.80;99.90
47616;DHT22;69146;52.266;7.000;2023-11-21T12:48:59;8.80;99.90
47616;DHT22;69146;52.266;7.000;2023-11-21T12:51:44;8.80;99.90
47616;DHT22;69146;52.266;7.000;2023-11-21T12:54:30;8.70;99.90
47616;DHT22;69146;52.266;7.000;2023-11-21T12:57:15;8.70;99.90
47616;DHT22;69146;52.266;7.000;2023-11-21T12:59:59;8.60;99.90
47616;DHT22;69146;52.266;7.000;2023-11-21T13:02:47;8.60;99.90
47616;DHT22;69146;52.266;7.000;2023-11-21T13:05:33;8.50;99.90
47616;DHT22;69146;52.266;7.000;2023-11-21T13:08:20;8.50;99.90
47616;DHT22;69146;52.266;7.000;2023-11-21T13:11:07;8.50;99.90
47616;DHT22;69146;52.266;7.000;2023-11-21T13:13:52;8.40;99.90
47616;DHT22;69146;52.266;7.000;2023-11-21T13:16:37;8.40;99.90
47616;DHT22;69146;52.266;7.000;2023-11-21T13:19:23;8.40;99.90
47616;DHT22;69146;52.266;7.000;2023-11-21T13:22:08;8.40;99.90
47616;DHT22;69146;52.266;7.000;2023-11-21T13:24:55;8.30;99.90
47616;DHT22;69146;52.266;7.000;2023-11-21T13:27:41;8.30;99.90
47616;DHT22;69146;52.266;7.000;2023-11-21T13:30:27;8.30;99.90
47616;DHT22;69146;52.266;7.000;2023-11-21T13:33:17;8.20;99.90
47616;DHT22;69146;52.266;7.000;2023-11-21T13:36:05;8.10;99.90
47616;DHT22;69146;52.266;7.000;2023-11-21T13:38:53;8.20;99.90
47616;DHT22;69146;52.266;7.000;2023-11-21T13:41:38;8.20;99.90
47616;DHT22;69146;52.266;7.000;2023-11-21T13:44:24;8.20;99.90
47616;DHT22;69146;52.266;7.000;2023-11-21T13:47:13;8.20;99.90
47616;DHT22;69146;52.266;7.000;2023-11-21T13:49:57;8.20;99.90
47616;DHT22;69146;52.266;7.000;2023-11-21T13:52:42;8.30;99.90
47616;DHT22;69146;52.266;7.000;2023-11-21T13:55:26;8.30;99.90
47616;DHT22;69146;52.266;7.000;2023-11-21T13:58:11;8.20;99.90
47616;DHT22;69146;52.266;7.000;2023-11-21T14:01:04;8.20;99.90
47616;DHT22;69146;52.266;7.000;2023-11-21T14:03:50;8.20;99.90
47616;DHT22;69146;52.266;7.000;2023-11-21T14:06:41;8.20;99.90
47616;DHT22;69146;52.266;7.000;2023-11-21T14:09:32;8.20;99.90
47616;DHT22;69146;52.266;7.000;2023-11-21T14:12:19;8.10;99.90
47616;DHT22;69146;52.266;7.000;2023-11-21T14:15:04;8.10;99.90
47616;DHT22;69146;52.266;7.000;2023-11-21T14:17:51;8.10;99.90
47616;DHT22;69146;52.266;7.000;2023-11-21T14:20:36;8.00;99.90
47616;DHT22;69146;52.266;7.000;2023-11-21T14:23:21;8.10;99.90
47616;DHT22;69146;52.266;7.000;2023-11-21T14:26:07;8.00;99.90
47616;DHT22;69146;52.266;7.000;2023-11-21T14:28:51;8.00;99.90
47616;DHT22;69146;52.266;7.000;2023-11-21T14:31:37;8.00;99.90
47616;DHT22;69146;52.266;7.000;2023-11-21T14:34:23;8.10;99.90
47616;DHT22;69146;52.266;7.000;2023-11-21T14:37:07;8.00;99.90
47616;DHT22;69146;52.266;7.000;2023-11-21T14:39:52;8.00;99.90
47616;DHT22;69146;52.266;7.000;2023-11-21T14:42:36;8.10;99.90
47616;DHT22;69146;52.266;7.000;2023-11-21T14:45:23;8.00;99.90
47616;DHT22;69146;52.266;7.000;2023-11-21T14:48:10;7.90;99.90
47616;DHT22;69146;52.266;7.000;2023-11-21T14:51:11;7.90;99.90
47616;DHT22;69146;52.266;7.000;2023-11-21T14:54:15;7.80;99.90
47616;DHT22;69146;52.266;7.000;2023-11-21T14:57:09;7.80;99.90
47616;DHT22;69146;52.266;7.000;2023-11-21T14:59:55;7.70;99.90
47616;DHT22;69146;52.266;7.000;2023-11-21T15:02:42;7.60;99.90
47616;DHT22;69146;52.266;7.000;2023-11-21T15:05:33;7.60;99.90
47616;DHT22;69146;52.266;7.000;2023-11-21T15:08:20;7.50;99.90
47616;DHT22;69146;52.266;7.000;2023-11-21T15:11:10;7.50;99.90
47616;DHT22;69146;52.266;7.000;2023-11-21T15:13:59;7.50;99.90
47616;DHT22;69146;52.266;7.000;2023-11-21T15:16:44;7.50;99.90
47616;DHT22;69146;52.266;7.000;2023-11-21T15:19:34;7.50;99.90
47616;DHT22;69146;52.266;7.000;2023-11-21T15:22:19;7.60;99.90
47616;DHT22;69146;52.266;7.000;2023-11-21T15:25:06;7.60;99.90
47616;DHT22;69146;52.266;7.000;2023-11-21T15:27:54;7.50;99.90
47616;DHT22;69146;52.266;7.000;2023-11-21T15:30:38;7.50;99.90
47616;DHT22;69146;52.266;7.000;2023-11-21T15:33:23;7.40;99.90
47616;DHT22;69146;52.266;7.000;2023-11-21T15:36:08;7.50;99.90
47616;DHT22;69146;52.266;7.000;2023-11-21T15:38:54;7.50;99.90
47616;DHT22;69146;52.266;7.000;2023-11-21T15:41:41;7.50;99.90
47616;DHT22;69146;52.266;7.000;2023-11-21T15:44:26;7.50;99.90
47616;DHT22;69146;52.266;7.000;2023-11-21T15:47:11;7.50;99.90
47616;DHT22;69146;52.266;7.000;2023-11-21T15:49:56;7.50;99.90
47616;DHT22;69146;52.266;7.000;2023-11-21T15:52:40;7.50;99.90
47616;DHT22;69146;52.266;7.000;2023-11-21T15:55:25;7.60;99.90
47616;DHT22;69146;52.266;7.000;2023-11-21T15:58:11;7.50;99.90
47616;DHT22;69146;52.266;7.000;2023-11-21T16:00:55;7.40;99.90
47616;DHT22;69146;52.266;7.000;2023-11-21T16:03:41;7.40;99.90
47616;DHT22;69146;52.266;7.000;2023-11-21T16:06:30;7.40;99.90
47616;DHT22;69146;52.266;7.000;2023-11-21T16:09:15;7.30;99.90
47616;DHT22;69146;52.266;7.000;2023-11-21T16:12:06;7.30;99.90
47616;DHT22;69146;52.266;7.000;2023-11-21T16:14:52;7.20;99.90
47616;DHT22;69146;52.266;7.000;2023-11-21T16:17:37;7.20;99.90
47616;DHT22;69146;52.266;7.000;2023-11-21T16:20:21;7.20;99.90
47616;DHT22;69146;52.266;7.000;2023-11-21T16:23:06;7.20;99.90
47616;DHT22;69146;52.266;7.000;2023-11-21T16:25:52;7.10;99.90
47616;DHT22;69146;52.266;7.000;2023-11-21T16:28:38;7.20;99.90
47616;DHT22;69146;52.266;7.000;2023-11-21T16:31:27;7.10;99.90
47616;DHT22;69146;52.266;7.000;2023-11-21T16:34:13;7.10;99.90
47616;DHT22;69146;52.266;7.000;2023-11-21T16:37:00;7.10;99.90
47616;DHT22;69146;52.266;7.000;2023-11-21T16:39:45;7.20;99.90
47616;DHT22;69146;52.266;7.000;2023-11-21T16:42:32;7.30;99.90
47616;DHT22;69146;52.266;7.000;2023-11-21T16:45:18;7.30;99.90
47616;DHT22;69146;52.266;7.000;2023-11-21T16:48:04;7.30;99.90
47616;DHT22;69146;52.266;7.000;2023-11-21T16:50:51;7.20;99.90
47616;DHT22;69146;52.266;7.000;2023-11-21T16:53:36;7.30;99.90
47616;DHT22;69146;52.266;7.000;2023-11-21T16:56:21;7.20;99.90
47616;DHT22;69146;52.266;7.000;2023-11-21T16:59:05;7.20;99.90
47616;DHT22;69146;52.266;7.000;2023-11-21T17:01:49;7.30;99.90
47616;DHT22;69146;52.266;7.000;2023-11-21T17:04:35;7.20;99.90
47616;DHT22;69146;52.266;7.000;2023-11-21T17:07:25;7.20;99.90
47616;DHT22;69146;52.266;7.000;2023-11-21T17:10:11;7.10;99.90
47616;DHT22;69146;52.266;7.000;2023-11-21T17:12:56;7.00;99.90
47616;DHT22;69146;52.266;7.000;2023-11-21T17:15:42;7.00;99.90
47616;DHT22;69146;52.266;7.000;2023-11-21T17:18:27;7.00;99.90
47616;DHT22;69146;52.266;7.000;2023-11-21T17:21:12;7.00;99.90
47616;DHT22;69146;52.266;7.000;2023-11-21T17:23:58;7.10;99.90
47616;DHT22;69146;52.266;7.000;2023-11-21T17:26:42;7.10;99.90
47616;DHT22;69146;52.266;7.000;2023-11-21T17:29:27;7.10;99.90
47616;DHT22;69146;52.266;7.000;2023-11-21T17:32:12;7.10;99.90
47616;DHT22;69146;52.266;7.000;2023-11-21T17:34:56;7.10;99.90
47616;DHT22;69146;52.266;7.000;2023-11-21T17:37:42;7.00;99.90
47616;DHT22;69146;52.266;7.000;2023-11-21T17:40:27;7.00;99.90
47616;DHT22;69146;52.266;7.000;2023-11-21T17:43:12;7.00;99.90
47616;DHT22;69146;52.266;7.000;2023-11-21T17:45:57;7.00;99.90
47616;DHT22;69146;52.266;7.000;2023-11-21T17:48:42;6.90;99.90
47616;DHT22;69146;52.266;7.000;2023-11-21T17:51:27;6.80;99.90